Latest Weather Observations for Thredbo Top Station

IDN60901

Issued at 4:45 am EDT Thursday 27 November 2014 (issued every 10 minutes, with the page automatically refreshed every 10 minutes)

About weather observations | Map of Canberra area stations | Latest observations for Canberra area | Other Formats
Station Details ID: 071032 Name: THREDBO AWS Lat: -36.49 Lon: 148.29 Height: 1957.0 m
Data from the previous 72 hours. | See also: Recent months at Thredbo Top Station
Date/Time
EDT
Tmp

°C
App
Tmp
°C
Dew
Point
°C
Rel
Hum
%
Delta-T

°C
Wind Press
QNH
hPa
Press
MSL
hPa
Rain
since
9 am
mm
Dir
 
Spd
km/h
Gust
km/h
Spd
kts
Gust
kts
27/04:30am 3.5 0.4 3.4 99 0.0 WNW 9 13 5 7 1021.8 1020.7 0.2
27/04:00am 2.7 -1.0 2.6 99 0.0 NW 11 13 6 7 1021.5 1020.5 0.2
27/03:30am 3.4 -0.5 3.3 99 0.0 NNW 13 17 7 9 1021.5 1020.5 0.2
27/03:00am 4.1 1.6 4.0 99 0.0 N 6 11 3 6 1021.8 1020.7 0.2
27/02:30am 4.1 1.5 4.0 99 0.0 N 7 11 4 6 1021.9 1020.8 0.2
27/02:00am 4.6 2.6 4.5 99 0.0 ENE 4 7 2 4 1022.1 1021.0 0.2
27/01:30am 4.7 2.4 4.6 99 0.0 NE 6 11 3 6 1022.3 1021.3 0.0
27/01:00am 4.7 2.4 4.6 99 0.0 E 6 11 3 6 1022.6 1021.5 0.0
27/12:30am 4.9 2.4 4.8 99 0.0 ENE 7 11 4 6 1022.7 1021.6 0.0
27/12:00am 4.8 1.9 4.7 99 0.0 E 9 11 5 6 1022.9 1021.9 0.0
 
Date/Time
EDT
Tmp

°C
App
Tmp
°C
Dew
Point
°C
Rel
Hum
%
Delta-T

°C
Wind Press
QNH
hPa
Press
MSL
hPa
Rain
since
9 am
mm
Dir
 
Spd
km/h
Gust
km/h
Spd
kts
Gust
kts
26/11:30pm 4.9 2.4 4.8 99 0.0 E 7 9 4 5 1022.9 1021.9 0.0
26/11:00pm 5.0 2.7 4.9 99 0.0 ENE 6 9 3 5 1023.0 1022.0 0.0
26/10:30pm 5.2 2.8 5.1 99 0.0 E 7 11 4 6 1022.9 1021.9 0.0
26/10:00pm 5.4 3.0 5.3 99 0.0 ENE 7 11 4 6 1022.7 1021.6 0.0
26/09:30pm 5.7 3.6 5.6 99 0.0 SE 6 9 3 5 1022.6 1021.5 0.0
26/09:00pm 5.8 4.1 5.7 99 0.0 ESE 4 6 2 3 1022.2 1021.2 0.0
26/08:30pm 5.9 4.6 5.8 99 0.0 SE 2 4 1 2 1021.8 1020.7 0.0
26/08:00pm 7.1 3.7 4.2 82 1.4 NW 11 17 6 9 1021.4 1020.3 0.0
26/07:30pm 7.3 4.3 3.9 79 1.6 WNW 9 15 5 8 1021.2 1020.1 0.0
26/07:00pm 8.2 5.3 4.6 78 1.7 W 9 13 5 7 1020.7 1019.6 0.0
26/06:30pm 8.7 5.6 3.5 70 2.4 WSW 9 19 5 10 1020.2 1019.0 0.0
26/06:00pm 9.0 5.5 3.4 68 2.6 W 11 15 6 8 1019.9 1018.8 0.0
26/05:30pm 11.0 7.8 3.1 58 3.7 W 9 19 5 10 1019.7 1018.6 0.0
26/05:00pm 10.6 7.5 3.4 61 3.4 WSW 9 17 5 9 1019.7 1018.6 0.0
26/04:30pm 9.2 6.2 2.3 62 3.2 W 7 17 4 9 1019.9 1018.8 0.0
26/04:00pm 9.2 5.5 2.1 61 3.2 W 11 20 6 11 1020.0 1018.9 0.0
26/03:30pm 10.3 5.9 2.9 60 3.5 WSW 15 30 8 16 1020.0 1018.9 0.0
26/03:00pm 10.0 6.2 3.7 65 3.0 W 13 24 7 13 1020.0 1018.9 0.0
26/02:30pm 9.8 5.1 3.3 64 3.1 W 17 28 9 15 1020.4 1019.3 0.0
26/02:00pm 9.9 5.7 3.6 65 3.0 W 15 26 8 14 1020.5 1019.4 0.0
26/01:30pm 9.9 4.7 3.4 64 3.1 W 20 32 11 17 1020.4 1019.3 0.0
26/01:00pm 9.1 3.0 2.7 64 2.9 NW 24 35 13 19 1020.4 1019.3 0.0
26/12:30pm 9.2 3.3 1.9 60 3.3 NW 22 33 12 18 1020.6 1019.5 0.0
26/12:00pm 8.9 3.4 0.6 56 3.6 NW 19 32 10 17 1020.4 1019.3 0.0
26/11:30am 8.4 2.3 0.6 58 3.4 NW 22 33 12 18 1020.4 1019.3 0.0
26/11:00am 8.1 2.3 2.4 67 2.6 NW 22 35 12 19 1020.6 1019.5 0.0
26/10:30am 5.9 -2.1 0.3 67 2.4 WNW 32 39 17 21 1020.5 1019.4 0.0
26/10:00am 5.7 -2.0 -0.1 66 2.4 NW 30 37 16 20 1020.4 1019.3 0.0
26/09:30am 3.9 -4.3 0.1 76 1.6 NW 33 43 18 23 1020.8 1019.8 0.0
26/09:00am 3.6 -3.6 0.5 80 1.3 WNW 28 39 15 21 1020.7 1019.6 0.0
26/08:30am 3.1 -3.8 0.2 81 1.2 WNW 26 35 14 19 1020.7 1019.6 0.0
26/08:00am 3.0 -4.7 0.1 81 1.2 WNW 30 39 16 21 1020.6 1019.5 0.0
26/07:30am 2.7 -3.5 -0.1 82 1.1 WNW 22 30 12 16 1020.3 1019.2 0.0
26/07:00am 2.8 -4.1 -0.1 81 1.2 W 26 37 14 20 1020.2 1019.0 0.0
26/06:30am 2.4 -3.5 -0.5 81 1.2 W 20 30 11 16 1020.2 1019.0 0.0
26/06:00am 2.7 -3.3 -1.8 72 1.7 W 20 30 11 16 1020.0 1018.9 0.0
26/05:30am 2.5 -4.0 -2.2 71 1.8 W 22 33 12 18 1020.0 1018.9 0.0
26/05:00am 2.4 -5.4 -3.9 63 2.3 W 28 35 15 19 1019.7 1018.6 0.0
26/04:30am 2.5 -5.7 -4.2 61 2.4 WNW 30 35 16 19 1019.6 1018.5 0.0
26/04:00am 2.1 -5.1 -2.4 72 1.7 WNW 26 32 14 17 1019.7 1018.6 0.0
26/03:30am 2.3 -4.7 -3.8 64 2.2 WNW 24 32 13 17 1019.7 1018.6 0.0
26/03:00am 1.7 -5.1 -1.5 79 1.2 WNW 24 30 13 16 1019.9 1018.8 0.0
26/02:30am 2.7 -5.0 -3.2 65 2.2 WNW 28 33 15 18 1020.2 1019.0 0.0
26/02:00am 2.7 -4.8 -4.9 57 2.9 NW 26 32 14 17 1020.2 1019.0 0.0
26/01:30am 2.9 -4.7 -5.2 55 2.9 NW 26 32 14 17 1020.5 1019.4 0.0
26/01:00am 3.0 -3.7 -3.8 61 2.5 NW 22 28 12 15 1021.0 1019.9 0.0
26/12:30am 2.5 -4.0 -2.8 68 2.0 WNW 22 26 12 14 1021.3 1020.2 0.0
26/12:00am 2.6 -3.4 -3.3 65 2.2 WNW 19 24 10 13 1021.4 1020.3 0.0
 
Date/Time
EDT
Tmp

°C
App
Tmp
°C
Dew
Point
°C
Rel
Hum
%
Delta-T

°C
Wind Press
QNH
hPa
Press
MSL
hPa
Rain
since
9 am
mm
Dir
 
Spd
km/h
Gust
km/h
Spd
kts
Gust
kts
25/11:30pm 2.9 -3.4 -3.6 62 2.4 WNW 20 24 11 13 1021.5 1020.5 0.0
25/11:00pm 2.2 -2.7 -3.1 68 2.0 NNW 13 19 7 10 1021.5 1020.5 0.0
25/10:30pm 1.3 -5.3 -0.3 89 0.6 NNW 24 26 13 14 1021.4 1020.3 0.0
25/10:00pm 2.9 -3.5 0.8 86 0.9 NNW 24 30 13 16 1021.5 1020.5 0.0
25/09:30pm 2.5 -3.0 0.6 87 0.8 NNE 19 22 10 12 1021.3 1020.2 0.0
25/09:00pm 3.4 -4.1 1.0 84 1.0 NNW 30 37 16 20 1021.1 1020.0 0.0
25/08:30pm 3.6 -4.0 0.8 82 1.2 NNW 30 35 16 19 1020.8 1019.8 0.0
25/08:00pm 4.3 -3.2 1.0 79 1.4 NNW 30 39 16 21 1020.7 1019.6 0.0
25/07:30pm 4.8 -3.0 1.5 79 1.4 NNW 32 39 17 21 1020.3 1019.2 0.0
25/07:00pm 5.2 -2.6 1.5 77 1.6 NNW 32 43 17 23 1019.8 1018.7 0.0
25/06:30pm 5.6 -2.0 0.8 71 2.1 NNW 30 44 16 24 1019.6 1018.5 0.0
25/06:00pm 5.6 -2.6 0.6 70 2.1 NNW 33 41 18 22 1019.1 1018.0 0.0
25/05:30pm 6.3 -1.5 1.4 71 2.1 NNW 32 43 17 23 1019.0 1017.9 0.0
25/05:00pm 7.1 -1.0 1.2 66 2.6 NNW 33 46 18 25 1018.8 1017.6 0.0
25/04:30pm 7.3 0.2 1.2 65 2.7 NNW 28 43 15 23 1018.4 1017.3 0.0
25/04:00pm 8.4 1.2 0.9 59 3.3 NW 28 41 15 22 1018.1 1016.9 0.0
25/03:30pm 8.3 1.6 1.7 63 3.0 NW 26 39 14 21 1018.0 1016.8 0.0
25/03:00pm 8.3 1.1 0.5 58 3.4 WNW 28 41 15 22 1017.9 1016.7 0.0
25/02:30pm 7.7 0.0 0.2 59 3.2 NW 30 39 16 21 1017.9 1016.7 0.0
25/02:09pm 8.6 1.5 1.3 60 3.3 WNW 28 46 15 25 1017.6 1016.5 0.0
25/02:00pm 7.7 -0.4 0.0 58 3.3 NW 32 43 17 23 1017.5 1016.3 0.0
25/01:30pm 8.4 0.5 1.3 61 3.2 W 32 46 17 25 1017.3 1016.1 0.0
25/01:00pm 7.1 -2.0 -4.0 45 4.3 W 35 50 19 27 1017.1 1015.9 0.0
25/12:30pm 7.1 -2.3 -2.6 50 3.9 W 37 63 20 34 1017.1 1015.9 0.0
25/12:02pm 6.6 -3.6 -3.1 50 3.8 WNW 41 59 22 32 1017.0 1015.7 0.0
25/12:00pm 7.1 -2.7 -3.1 48 4.0 WNW 39 52 21 28 1017.0 1015.7 0.0
25/11:39am 6.8 -2.2 -2.6 51 3.8 W 35 54 19 29 1017.1 1015.9 0.0
25/11:30am 5.5 -4.3 -6.7 41 4.3 W 37 54 20 29 1017.0 1015.7 0.0
25/11:06am 6.5 -1.3 -3.4 49 3.9 W 28 46 15 25 1016.7 1015.5 0.0
25/11:00am 6.3 -2.2 -3.3 50 3.7 W 32 46 17 25 1016.7 1015.5 0.0
25/10:44am 5.7 -3.1 -4.4 48 3.8 W 33 43 18 23 1016.6 1015.4 0.0
25/10:30am 4.4 -4.8 -1.0 68 2.2 WNW 37 56 20 30 1016.6 1015.4 0.0
25/10:09am 4.2 -3.8 -2.4 62 2.6 WNW 30 52 16 28 1016.2 1014.9 0.0
25/10:00am 6.0 -1.4 -0.7 62 2.8 WNW 28 44 15 24 1016.2 1014.9 0.0
25/09:30am 5.3 -3.2 -7.2 40 4.4 W 30 44 16 24 1015.7 1014.5 0.0
25/09:00am 3.6 -5.0 -4.6 55 3.0 W 32 44 17 24 1015.6 1014.3 35.4
25/08:30am 2.7 -6.2 -7.5 47 3.6 W 32 43 17 23 1015.5 1014.2 35.4
25/08:00am 2.7 -6.3 -8.6 43 3.9 WNW 32 44 17 24 1014.8 1013.5 35.4
25/07:30am 1.8 -6.9 -4.9 61 2.5 WNW 32 43 17 23 1014.3 1013.0 35.4
25/07:00am 1.2 -7.7 -5.5 61 2.4 WNW 33 46 18 25 1014.1 1012.8 35.4
25/06:42am 1.1 -7.4 -3.6 71 1.8 WNW 32 50 17 27 1014.0 1012.7 35.4
25/06:30am 1.0 -6.5 -1.7 82 1.1 WNW 28 37 15 20 1013.9 1012.6 35.4
25/06:02am 1.2 -7.1 -1.7 81 1.1 WNW 32 52 17 28 1013.5 1012.2 35.4
25/06:00am 1.1 -7.2 -1.6 82 1.0 WNW 32 46 17 25 1013.4 1012.1 35.4
25/05:30am 1.7 -7.7 0.1 89 0.6 NW 39 57 21 31 1012.7 1011.4 35.4
25/05:01am 2.1 -6.5 0.0 86 0.9 NW 35 59 19 32 1012.6 1011.3 35.4
25/05:00am 2.1 -6.2 -0.5 83 1.0 NW 33 48 18 26 1012.5 1011.2 35.4
25/04:30am 2.5 -5.9 1.3 92 0.5 NW 35 50 19 27 1012.0 1010.7 35.4
25/04:08am 2.8 -6.1 0.5 85 0.9 NW 37 57 20 31 1011.9 1010.6 35.4
25/04:00am 2.9 -6.3 1.4 90 0.6 NW 39 54 21 29 1011.8 1010.4 35.4
25/03:42am 3.2 -6.7 1.6 89 0.7 NW 43 61 23 33 1011.5 1010.1 35.4
25/03:30am 3.6 -6.8 2.3 91 0.6 NW 46 63 25 34 1011.4 1010.0 35.4
25/03:00am 4.3 -6.1 2.0 85 1.0 WNW 46 69 25 37 1011.4 1010.0 35.4
25/02:30am 5.7 -1.6 5.6 99 0.0 WNW 33 52 18 28 1011.1 1009.7 35.4
25/02:22am 6.0 -1.2 5.9 99 0.0 NW 33 52 18 28 1011.2 1009.9 35.4
25/02:21am 6.0 -1.6 5.9 99 0.0 NW 35 52 19 28 1011.2 1009.9 35.4
25/02:11am 6.0 -2.3 5.9 99 0.0 W 39 57 21 31 1011.2 1009.9 35.4
25/02:07am 6.2 -2.5 6.1 99 0.0 W 41 57 22 31 1011.1 1009.7 35.4
25/02:00am 6.8 -1.0 6.7 99 0.0 WNW 37 59 20 32 1011.1 1009.7 35.4
25/01:30am 8.4 -0.2 8.3 99 0.1 NW 43 69 23 37 1011.1 1009.7 35.0
25/01:00am 8.4 -0.7 8.3 99 0.1 NNW 46 67 25 36 1011.2 1009.9 34.4
25/12:34am 8.3 -0.5 8.2 99 0.1 NNW 44 63 24 34 1011.5 1010.1 34.0
25/12:30am 8.3 -1.2 8.2 99 0.1 NNW 48 63 26 34 1011.5 1010.1 34.0
25/12:00am 8.1 -0.1 8.0 99 0.1 NW 41 65 22 35 1011.6 1010.2 33.8
 
Date/Time
EDT
Tmp

°C
App
Tmp
°C
Dew
Point
°C
Rel
Hum
%
Delta-T

°C
Wind Press
QNH
hPa
Press
MSL
hPa
Rain
since
9 am
mm
Dir
 
Spd
km/h
Gust
km/h
Spd
kts
Gust
kts
24/11:45pm 8.1 -0.7 8.0 99 0.1 NNW 44 67 24 36 1012.0 1010.7 33.6
24/11:30pm 7.9 -1.0 7.8 99 0.1 NNW 44 59 24 32 1011.8 1010.4 33.6
24/11:11pm 7.6 -2.5 7.5 99 0.1 NNW 50 69 27 37 1011.8 1010.4 33.6
24/11:00pm 8.1 -2.0 7.3 95 0.4 NNW 50 63 27 34 1011.9 1010.6 33.6
24/10:30pm 9.5 3.1 5.1 74 2.2 NW 28 56 15 30 1012.0 1010.7 33.4
24/10:23pm 8.5 -0.4 5.1 79 1.6 NW 41 72 22 39 1012.3 1010.9 33.4
24/10:00pm 8.2 -1.0 8.1 99 0.1 NW 46 72 25 39 1014.4 1013.2 32.4
24/09:34pm 8.7 -2.4 7.8 94 0.5 NW 56 95 30 51 1013.8 1012.4 31.4
24/09:30pm 8.9 -1.3 8.6 98 0.2 NNW 52 74 28 40 1013.5 1012.2 30.8
24/09:09pm 9.1 0.7 9.0 99 0.1 NNW 43 61 23 33 1012.6 1011.3 27.6
24/09:05pm 9.0 1.7 8.9 99 0.1 NNW 37 48 20 26 1012.6 1011.3 27.4
24/09:00pm 8.9 2.0 8.8 99 0.1 WNW 35 65 19 35 1012.7 1011.4 27.2
24/08:36pm 8.4 -0.3 8.3 99 0.1 WNW 44 63 24 34 1012.7 1011.4 23.4
24/08:30pm 8.5 -0.2 8.4 99 0.1 NW 44 61 24 33 1013.0 1011.6 22.2
24/08:04pm 8.6 1.2 8.5 99 0.1 WNW 37 57 20 31 1012.5 1011.2 19.8
24/08:00pm 8.6 1.2 8.5 99 0.1 W 37 54 20 29 1012.4 1011.0 19.8
24/07:30pm 8.3 1.2 8.2 99 0.1 W 35 67 19 36 1013.1 1011.7 18.8
24/07:09pm 8.1 0.6 8.0 99 0.1 WNW 37 56 20 30 1013.2 1011.9 18.0
24/07:00pm 7.4 -1.4 7.3 99 0.1 W 43 69 23 37 1014.2 1012.9 14.6
24/06:59pm 7.8 -0.1 7.7 99 0.1 WSW 39 69 21 37 1014.1 1012.8 13.6
24/06:35pm 10.0 2.2 9.9 99 0.1 NW 41 67 22 36 1012.4 1011.0 9.6
24/06:30pm 10.0 2.6 9.9 99 0.1 NW 39 54 21 29 1012.2 1010.8 9.6
24/06:00pm 10.4 -0.9 9.6 95 0.4 NNW 59 78 32 42 1011.4 1010.0 9.6
24/05:36pm 10.2 -1.1 9.4 95 0.4 NNW 59 78 32 42 1011.2 1009.9 9.4
24/05:30pm 10.2 -0.5 9.6 96 0.3 NNW 56 72 30 39 1011.2 1009.9 9.4
24/05:19pm 10.1 0.1 9.5 96 0.3 NNW 52 72 28 39 1011.7 1010.3 9.4
24/05:00pm 9.9 -0.4 9.8 99 0.1 NNW 54 69 29 37 1012.0 1010.7 9.4
24/04:30pm 9.9 1.5 9.8 99 0.1 NW 44 65 24 35 1012.3 1010.9 9.4
24/04:00pm 9.7 1.3 9.6 99 0.1 NW 44 67 24 36 1012.7 1011.4 9.4
24/03:30pm 9.9 -0.9 9.8 99 0.1 NNW 57 78 31 42 1013.3 1012.0 9.4
24/03:00pm 10.4 -0.1 10.2 99 0.1 NNW 56 74 30 40 1013.4 1012.1 9.2
24/02:30pm 10.1 -0.5 9.9 99 0.1 NNW 56 74 30 40 1014.8 1013.5 8.6
24/02:29pm 10.1 -0.5 9.9 99 0.1 NNW 56 74 30 40 1014.7 1013.4 8.4
24/02:27pm 10.2 -1.3 10.0 99 0.1 NNW 61 74 33 40 1014.8 1013.5 8.4
24/02:00pm 10.4 2.7 10.2 99 0.1 NW 41 59 22 32 1015.1 1013.9 7.8
24/01:30pm 10.5 1.9 10.3 99 0.1 NNW 46 65 25 35 1015.0 1013.7 5.8
24/01:00pm 10.9 4.1 10.7 99 0.1 NW 37 57 20 31 1015.1 1013.9 2.6
24/12:30pm 11.0 2.9 10.8 99 0.1 NW 44 63 24 34 1014.9 1013.6 0.0
24/12:00pm 11.5 4.0 10.7 95 0.4 NW 41 59 22 32 1015.6 1014.3 0.0
24/11:32am 11.5 3.6 10.9 96 0.3 NNW 43 63 23 34 1016.7 1015.5 0.0
24/11:30am 11.3 3.5 11.1 99 0.1 NNW 43 56 23 30 1017.0 1015.7 0.0
24/11:00am 11.6 4.7 10.3 92 0.7 NW 37 63 20 34 1018.1 1016.9 0.0
24/10:35am 11.1 3.4 10.0 93 0.6 NNW 41 59 22 32 1018.4 1017.3 0.0
24/10:30am 11.0 2.9 9.9 93 0.6 NNW 43 59 23 32 1018.7 1017.5 0.0
24/10:02am 11.4 2.1 9.1 86 1.2 NNW 48 67 26 36 1019.0 1017.9 0.0
24/10:00am 11.5 1.8 9.1 85 1.3 NNW 50 67 27 36 1018.9 1017.7 0.0
24/09:30am 11.5 0.5 9.2 86 1.2 NNW 57 78 31 42 1018.7 1017.5 0.0
24/09:13am 12.0 0.5 10.2 89 1.0 NNW 61 85 33 46 1018.8 1017.6 0.0
24/09:00am 11.1 -1.0 9.5 90 0.9 NNW 63 78 34 42 1018.6 1017.4 0.6
24/08:32am 11.5 -1.2 9.8 89 0.9 NNW 67 85 36 46 1018.4 1017.3 0.6
24/08:30am 11.4 -1.3 9.8 90 0.9 NNW 67 82 36 44 1018.4 1017.3 0.6
24/08:00am 11.2 -2.5 9.6 90 0.9 NNW 72 91 39 49 1018.3 1017.2 0.6
24/07:44am 11.2 -2.9 9.5 89 0.9 NNW 74 93 40 50 1018.1 1016.9 0.6
24/07:30am 11.2 -3.3 9.6 90 0.9 NNW 76 93 41 50 1018.1 1016.9 0.6
24/07:00am 11.7 -2.6 8.7 82 1.6 NNW 74 93 40 50 1017.9 1016.7 0.6
24/06:36am 11.8 -1.7 6.7 71 2.6 NNW 67 85 36 46 1017.9 1016.7 0.6
24/06:30am 11.1 -1.9 7.2 77 2.0 NNW 65 78 35 42 1017.8 1016.6 0.6
24/06:22am 11.2 -0.3 7.1 76 2.1 NNW 57 78 31 42 1017.6 1016.5 0.6
24/06:00am 11.3 -0.6 6.8 74 2.3 NNW 59 70 32 38 1017.8 1016.6 0.6
24/05:30am 11.8 0.9 5.4 65 3.2 NNW 52 63 28 34 1017.1 1015.9 0.6
24/05:00am 10.9 0.6 6.6 75 2.2 N 50 63 27 34 1017.2 1016.0 0.6

Latest Capital City Observations: Canberra | Sydney | Melbourne | Brisbane | Adelaide | Perth | Hobart | Darwin

Other Formats:

Comma delimited format used in spreadsheet applications
http://www.bom.gov.au/fwo/IDN60903/IDN60903.95909.axf

JavaScript Object Notation format (JSON) in row-major order
http://www.bom.gov.au/fwo/IDN60903/IDN60903.95909.json